Grovania, Georgia
Current Conditions -  °F | °C
As of 7:35 PM on Monday 24 Nov 2014 (Local Time) from KPXE Reporting Station
Clear Clear  
Wind Chill: 71°   Ceiling: Unl
Heat Index: 71°   Visibility: 10mi
Dew Point: 65°   Wind: 6mph
Humidity: 80%   Direction: 210°SSW
Pressure: 29.91"   Gusts: NA
Location:  32.2568°N, 83.5362°W
Report Text: KPXE 250035Z AUTO 21005KT 10SM CLR 22/18 A2991 RMK AO2 LTG DSNT E AND SW T02170182
Loading
Personal Weather Stations






























Interactive Weather Map New forecast layout! Learn more

10-Day Weather Forecast

Advertisements
Track Severe Weather on mobile